LTCA

Elazığ Airport

Elazığ, Turkey
TAF LTCA 141940Z 1421/1506 VRB02KT 9999 FEW015 SCT035 BKN090 PROB30 TEMPO 1500/1503 2500 BR OVC012 PROB30 TEMPO 1503/1506 1200 BCFG OVC006
Issued Valid From Valid To
Dec-14 @ 19:40 UTC
(3 hours ago)
Dec-14 @ 21:00 UTC
(2 hours ago)
Dec-15 @ 06:00 UTC
(in 7 hours)
Dec-14 @ 21:00 to Dec-15 @ 06:00
TAF LTCA 141940Z 1421/1506 VRB02KT 9999 FEW015 SCT035 BKN090
Wind Visibility Clouds
Variable at 2 knots 10,000+ meters
  • Few at 1,500' AGL
  • Scattered at 3,500' AGL
  • Broken at 9,000' AGL
Temporary  (Probability 30%) Dec-15 @ 00:00 to Dec-15 @ 03:00
PROB30 TEMPO 1500/1503 2500 BR OVC012
Visibility Clouds Conditions
2,494 meters
  • Overcast at 1,200' AGL
  • Mist
Temporary  (Probability 30%) Dec-15 @ 03:00 to Dec-15 @ 06:00
PROB30 TEMPO 1503/1506 1200 BCFG OVC006
Visibility Clouds Conditions
1,207 meters
  • Overcast at 600' AGL
  • Patches of
  • Fog
TAF LTCA 141940Z 1421/1506 VRB02KT 9999 FEW015 SCT035 BKN090 PROB30 TEMPO 1500/1503 2500 BR OVC012 PROB30 TEMPO 1503/1506 1200 BCFG OVC006
Issued Dec-14 @ 19:40 UTC
(3 hours ago)
Valid From Dec-14 @ 21:00 UTC
(2 hours ago)
Valid To Dec-15 @ 06:00 UTC
(in 7 hours)
Dec-14 @ 21:00 - Dec-15 @ 06:00
Wind Visibility
Variable at 2 knots 10,000+ meters
Clouds
  • Few at 1,500' AGL
  • Scattered at 3,500' AGL
  • Broken at 9,000' AGL
Probability 30% Temporary Dec-15 @ 00:00 - Dec-15 @ 03:00
Clouds
  • Overcast at 1,200' AGL
Conditions
  • Mist
Probability 30% Temporary Dec-15 @ 03:00 - Dec-15 @ 06:00
Clouds
  • Overcast at 600' AGL
Conditions
  • Patches of
  • Fog